createdAt,value
2023-09-25T00:00:50.285Z,2.77
2023-09-25T00:03:19.023Z,2.60
2023-09-25T00:05:48.597Z,2.70
2023-09-25T00:08:16.959Z,2.90
2023-09-25T00:10:45.226Z,2.63
2023-09-25T00:13:15.272Z,2.33
2023-09-25T00:15:45.655Z,2.83
2023-09-25T00:18:32.838Z,2.40
2023-09-25T00:21:01.333Z,2.60
2023-09-25T00:23:29.643Z,2.50
2023-09-25T00:26:03.389Z,2.33
2023-09-25T00:28:33.369Z,2.37
2023-09-25T00:31:02.114Z,2.00
2023-09-25T00:33:30.514Z,2.50
2023-09-25T00:35:58.858Z,2.30
2023-09-25T00:38:27.270Z,2.60
2023-09-25T00:40:55.628Z,2.27
2023-09-25T00:43:23.930Z,2.33
2023-09-25T00:45:54.383Z,2.50
2023-09-25T00:48:27.567Z,2.33
2023-09-25T00:50:58.207Z,2.50
2023-09-25T00:53:28.697Z,2.50
2023-09-25T00:55:58.085Z,2.40
2023-09-25T00:58:27.170Z,2.10
2023-09-25T01:00:57.129Z,2.20
2023-09-25T01:03:26.613Z,2.40
2023-09-25T01:05:54.980Z,2.40
2023-09-25T01:08:23.285Z,2.30
2023-09-25T01:10:52.283Z,2.37
2023-09-25T01:13:20.724Z,2.43
2023-09-25T01:15:49.093Z,2.20
2023-09-25T01:18:19.085Z,2.60
2023-09-25T01:20:47.592Z,2.13
2023-09-25T01:23:17.322Z,2.23
2023-09-25T01:25:45.893Z,2.37
2023-09-25T01:28:15.057Z,2.50
2023-09-25T01:30:44.065Z,2.13
2023-09-25T01:33:12.858Z,2.17
2023-09-25T01:35:41.523Z,2.40
2023-09-25T01:38:09.832Z,2.27
2023-09-25T01:40:39.887Z,2.50
2023-09-25T01:43:08.226Z,2.17
2023-09-25T01:45:36.623Z,2.57
2023-09-25T01:48:06.381Z,2.30
2023-09-25T01:50:35.323Z,2.40
2023-09-25T01:53:04.687Z,2.50
2023-09-25T01:55:37.164Z,2.33
2023-09-25T01:58:08.318Z,2.47
2023-09-25T02:00:37.810Z,2.50
2023-09-25T02:03:07.428Z,2.20
2023-09-25T02:05:36.045Z,2.57
2023-09-25T02:08:04.621Z,2.30
2023-09-25T02:10:36.313Z,2.33
2023-09-25T02:13:06.636Z,2.10
2023-09-25T02:15:35.700Z,2.03
2023-09-25T02:18:06.007Z,2.40
2023-09-25T02:20:35.612Z,2.17
2023-09-25T02:23:04.217Z,2.33
2023-09-25T02:25:32.865Z,2.03
2023-09-25T02:28:01.845Z,2.50
2023-09-25T02:30:31.740Z,2.30
2023-09-25T02:33:01.402Z,2.33
2023-09-25T02:35:29.982Z,2.50
2023-09-25T02:37:58.248Z,2.43
2023-09-25T02:40:26.585Z,2.20
2023-09-25T02:42:54.995Z,2.33
2023-09-25T02:45:23.261Z,2.10
2023-09-25T02:47:52.996Z,2.00
2023-09-25T02:50:21.794Z,2.30
2023-09-25T02:52:50.078Z,2.30
2023-09-25T02:55:18.702Z,2.40
2023-09-25T02:57:47.545Z,2.20
2023-09-25T03:00:16.366Z,2.27
2023-09-25T03:02:45.031Z,2.20
2023-09-25T03:05:15.771Z,2.40
2023-09-25T03:07:44.091Z,2.40
2023-09-25T03:10:12.401Z,2.70
2023-09-25T03:12:41.588Z,2.47
2023-09-25T03:15:11.168Z,2.33
2023-09-25T03:17:39.536Z,2.33
2023-09-25T03:20:17.065Z,2.47
2023-09-25T03:22:47.955Z,2.30
2023-09-25T03:25:17.160Z,2.27
2023-09-25T03:27:45.894Z,2.20
2023-09-25T03:30:15.366Z,2.10
2023-09-25T03:32:44.284Z,2.03
2023-09-25T03:35:12.831Z,2.27
2023-09-25T03:37:41.844Z,2.40
2023-09-25T03:40:14.026Z,2.57
2023-09-25T03:42:43.577Z,2.30
2023-09-25T03:45:12.572Z,2.37
2023-09-25T03:47:41.015Z,2.30
2023-09-25T03:50:10.371Z,2.50
2023-09-25T03:52:39.160Z,2.10
2023-09-25T03:55:07.958Z,2.47
2023-09-25T03:57:37.759Z,2.50
2023-09-25T04:00:08.039Z,2.27
2023-09-25T04:02:36.442Z,2.37
2023-09-25T04:05:05.126Z,2.37
2023-09-25T04:07:33.648Z,2.47
2023-09-25T04:10:03.283Z,2.03
2023-09-25T04:12:31.915Z,2.50
2023-09-25T04:15:01.780Z,2.07
2023-09-25T04:17:30.042Z,2.50
2023-09-25T04:19:58.515Z,2.43
2023-09-25T04:22:27.324Z,2.50
2023-09-25T04:24:55.638Z,2.83
2023-09-25T04:27:25.299Z,2.50
2023-09-25T04:29:53.917Z,2.40
2023-09-25T04:32:23.743Z,2.63
2023-09-25T04:34:52.023Z,2.53
2023-09-25T04:37:20.560Z,2.63
2023-09-25T04:39:49.009Z,2.80
2023-09-25T04:42:17.389Z,3.07
2023-09-25T04:44:45.869Z,2.43
2023-09-25T04:47:14.105Z,2.13
2023-09-25T04:49:43.782Z,2.40
2023-09-25T04:52:12.627Z,2.43
2023-09-25T04:54:41.900Z,2.60
2023-09-25T04:57:10.333Z,2.57
2023-09-25T04:59:38.874Z,2.73
2023-09-25T05:02:07.242Z,2.37
2023-09-25T05:04:37.729Z,2.33
2023-09-25T05:07:07.753Z,2.50
2023-09-25T05:09:36.119Z,2.23
2023-09-25T05:12:04.361Z,2.53
2023-09-25T05:14:32.704Z,2.20
2023-09-25T05:17:01.630Z,2.53
2023-09-25T05:19:29.920Z,2.47
2023-09-25T05:21:58.401Z,2.67
2023-09-25T05:24:28.102Z,2.27
2023-09-25T05:26:56.469Z,2.43
2023-09-25T05:29:24.756Z,2.40
2023-09-25T05:31:53.085Z,2.17
2023-09-25T05:34:21.409Z,2.80
2023-09-25T05:36:50.110Z,2.53
2023-09-25T05:39:18.868Z,2.30
2023-09-25T05:41:48.644Z,2.50
2023-09-25T05:44:17.132Z,2.30
2023-09-25T05:46:45.476Z,2.27
2023-09-25T05:49:14.309Z,2.50
2023-09-25T05:51:42.968Z,2.50
2023-09-25T05:54:11.352Z,2.67
2023-09-25T05:56:40.387Z,2.50
2023-09-25T05:59:10.357Z,2.33
2023-09-25T06:01:38.704Z,2.67
2023-09-25T06:04:07.312Z,2.30
2023-09-25T06:06:35.800Z,2.20
2023-09-25T06:09:06.125Z,2.00
2023-09-25T06:11:34.458Z,2.40
2023-09-25T06:14:02.874Z,2.60
2023-09-25T06:16:32.801Z,2.67
2023-09-25T06:19:01.188Z,2.53
2023-09-25T06:21:29.593Z,2.20
2023-09-25T06:23:57.924Z,3.00
2023-09-25T06:26:28.717Z,2.27
2023-09-25T06:28:57.471Z,2.63
2023-09-25T06:31:26.174Z,2.50
2023-09-25T06:33:56.010Z,2.37
2023-09-25T06:36:24.593Z,2.50
2023-09-25T06:38:53.005Z,2.57
2023-09-25T06:41:22.084Z,2.30
2023-09-25T06:44:26.863Z,2.37
2023-09-25T06:47:27.098Z,2.50
2023-09-25T06:50:24.858Z,2.47
2023-09-25T06:52:53.190Z,2.40
2023-09-25T06:55:21.607Z,2.50
2023-09-25T06:57:50.308Z,2.33
2023-09-25T07:00:19.613Z,2.23
2023-09-25T07:02:48.000Z,2.60
2023-09-25T07:05:17.924Z,2.57
2023-09-25T07:07:48.926Z,2.50
2023-09-25T07:10:18.496Z,2.60
2023-09-25T07:12:47.930Z,2.37
2023-09-25T07:15:23.127Z,2.50
2023-09-25T07:18:30.925Z,2.47
2023-09-25T07:21:31.163Z,2.53
2023-09-25T07:24:38.988Z,2.60
2023-09-25T07:27:35.148Z,2.30
2023-09-25T07:30:06.698Z,2.20
2023-09-25T07:32:35.398Z,2.33
2023-09-25T07:35:10.987Z,2.60
2023-09-25T07:37:42.986Z,2.00
2023-09-25T07:40:15.416Z,2.30
2023-09-25T07:42:57.995Z,2.87
2023-09-25T07:45:51.886Z,2.40
2023-09-25T07:48:20.678Z,2.13
2023-09-25T07:50:56.766Z,2.40
2023-09-25T07:53:25.524Z,2.23
2023-09-25T07:55:55.424Z,2.50
2023-09-25T07:58:24.070Z,2.40
2023-09-25T08:00:55.351Z,2.20
2023-09-25T08:03:27.229Z,2.03
2023-09-25T08:05:55.821Z,2.30
2023-09-25T08:08:36.874Z,2.20
2023-09-25T08:11:33.309Z,2.00
2023-09-25T08:14:01.752Z,2.53
2023-09-25T08:16:30.196Z,2.13
2023-09-25T08:18:58.782Z,2.40
2023-09-25T08:21:27.393Z,2.37
2023-09-25T08:23:57.080Z,2.20
2023-09-25T08:26:25.531Z,2.43
2023-09-25T08:28:55.721Z,2.57
2023-09-25T08:31:27.656Z,2.47
2023-09-25T08:33:56.230Z,2.30
2023-09-25T08:36:24.561Z,3.00
2023-09-25T08:38:54.092Z,2.30
2023-09-25T08:41:24.841Z,2.30
2023-09-25T08:43:55.204Z,2.60
2023-09-25T08:46:24.892Z,2.20
2023-09-25T08:48:57.937Z,2.40
2023-09-25T08:51:27.060Z,2.37
2023-09-25T08:53:55.506Z,2.47
2023-09-25T08:56:24.624Z,2.50
2023-09-25T08:58:55.949Z,2.20
2023-09-25T09:01:24.289Z,2.43
2023-09-25T09:03:53.566Z,2.13
2023-09-25T09:06:23.084Z,2.30
2023-09-25T09:08:53.613Z,2.50
2023-09-25T09:11:23.143Z,2.00
2023-09-25T09:13:51.755Z,2.20
2023-09-25T09:16:22.195Z,2.50
2023-09-25T09:18:51.045Z,2.13
2023-09-25T09:21:24.671Z,2.30
2023-09-25T09:23:55.219Z,2.20
2023-09-25T09:26:24.621Z,2.00
2023-09-25T09:28:54.659Z,2.50
2023-09-25T09:31:24.451Z,2.20
2023-09-25T09:33:56.644Z,2.10
2023-09-25T09:36:25.255Z,2.40
2023-09-25T09:38:55.678Z,1.67
2023-09-25T09:41:24.382Z,2.27
2023-09-25T09:43:54.714Z,2.13
2023-09-25T09:46:28.576Z,2.37
2023-09-25T09:48:59.133Z,2.15
2023-09-25T09:51:29.727Z,2.20
2023-09-25T09:54:03.885Z,2.13
2023-09-25T09:56:33.395Z,2.33
2023-09-25T09:59:02.741Z,2.30
2023-09-25T10:01:35.257Z,2.30
2023-09-25T10:04:05.385Z,2.30
2023-09-25T10:06:38.118Z,1.93
2023-09-25T10:09:12.261Z,2.10
2023-09-25T10:11:43.498Z,2.47
2023-09-25T10:14:12.724Z,2.83
2023-09-25T10:17:02.411Z,2.10
2023-09-25T10:19:55.297Z,2.07
2023-09-25T10:22:25.589Z,2.50
2023-09-25T10:25:05.859Z,2.10
2023-09-25T10:27:35.714Z,1.90
2023-09-25T10:30:08.238Z,2.30
2023-09-25T10:32:44.534Z,2.20
2023-09-25T10:35:38.652Z,2.03
2023-09-25T10:38:30.158Z,2.60
2023-09-25T10:41:03.314Z,2.00
2023-09-25T10:43:33.168Z,2.00
2023-09-25T10:46:01.999Z,2.27
2023-09-25T10:48:33.003Z,2.13
2023-09-25T10:51:01.684Z,2.00
2023-09-25T10:53:30.214Z,2.00
2023-09-25T10:55:58.905Z,2.13
2023-09-25T10:58:28.745Z,1.90
2023-09-25T11:00:57.678Z,2.10
2023-09-25T11:03:27.060Z,2.50
2023-09-25T11:05:57.465Z,2.33
2023-09-25T11:08:27.822Z,2.10
2023-09-25T11:11:00.707Z,2.10
2023-09-25T11:13:30.080Z,2.13
2023-09-25T11:15:58.669Z,2.40
2023-09-25T11:18:27.018Z,2.00
2023-09-25T11:20:58.732Z,2.27
2023-09-25T11:23:27.240Z,2.20
2023-09-25T11:25:56.218Z,2.40
2023-09-25T11:28:28.134Z,2.03
2023-09-25T11:30:57.331Z,2.20
2023-09-25T11:33:26.167Z,2.30
2023-09-25T11:35:57.169Z,2.37
2023-09-25T11:38:29.418Z,2.67
2023-09-25T11:41:12.946Z,2.30
2023-09-25T11:44:10.676Z,2.17
2023-09-25T11:47:18.915Z,2.50
2023-09-25T11:50:15.064Z,2.00
2023-09-25T11:52:45.455Z,2.00
2023-09-25T11:55:15.945Z,2.37
2023-09-25T11:57:45.091Z,2.20
2023-09-25T12:00:16.968Z,2.03
2023-09-25T12:02:47.449Z,2.47
2023-09-25T12:05:16.056Z,2.40
2023-09-25T12:07:48.156Z,2.00
2023-09-25T12:10:18.255Z,2.30
2023-09-25T12:12:48.510Z,2.13
2023-09-25T12:15:18.590Z,2.27
2023-09-25T12:17:48.975Z,2.40
2023-09-25T12:20:20.274Z,2.57
2023-09-25T12:22:53.781Z,2.33
2023-09-25T12:25:22.283Z,2.20
2023-09-25T12:27:51.382Z,2.43
2023-09-25T12:30:20.988Z,2.10
2023-09-25T12:32:50.213Z,2.67
2023-09-25T12:35:19.881Z,1.93
2023-09-25T12:37:52.332Z,2.10
2023-09-25T12:40:21.090Z,2.20
2023-09-25T12:42:54.780Z,2.33
2023-09-25T12:45:25.099Z,2.30
2023-09-25T12:47:53.601Z,2.20
2023-09-25T12:50:22.815Z,2.20
2023-09-25T12:52:53.314Z,2.33
2023-09-25T12:55:21.589Z,2.37
2023-09-25T12:57:58.945Z,2.70
2023-09-25T13:00:41.126Z,2.40
2023-09-25T13:03:29.324Z,2.27
2023-09-25T13:06:18.386Z,2.70
2023-09-25T13:08:48.638Z,2.67
2023-09-25T13:11:17.216Z,2.30
2023-09-25T13:13:45.627Z,2.00
2023-09-25T13:16:14.041Z,2.30
2023-09-25T13:18:42.589Z,2.60
2023-09-25T13:21:11.349Z,2.30
2023-09-25T13:23:39.627Z,2.23
2023-09-25T13:26:09.522Z,2.53
2023-09-25T13:28:37.950Z,2.43
2023-09-25T13:31:06.217Z,2.47
2023-09-25T13:33:41.913Z,2.40
2023-09-25T13:36:36.573Z,2.70
2023-09-25T13:39:05.323Z,2.37
2023-09-25T13:41:36.054Z,2.40
2023-09-25T13:44:04.477Z,2.30
2023-09-25T13:46:32.807Z,2.50
2023-09-25T13:49:01.368Z,2.17
2023-09-25T13:51:38.959Z,2.57
2023-09-25T13:54:07.716Z,2.23
2023-09-25T13:56:38.642Z,2.23
2023-09-25T13:59:09.178Z,2.50
2023-09-25T14:01:37.678Z,2.43
2023-09-25T14:04:07.729Z,2.60
2023-09-25T14:06:36.118Z,2.53
2023-09-25T14:09:04.734Z,2.70
2023-09-25T14:11:33.037Z,2.33
2023-09-25T14:14:02.842Z,2.20
2023-09-25T14:16:31.330Z,2.37
2023-09-25T14:18:59.768Z,2.30
2023-09-25T14:21:28.797Z,2.40
2023-09-25T14:23:57.855Z,2.50
2023-09-25T14:26:26.574Z,2.40
2023-09-25T14:28:55.443Z,2.73
2023-09-25T14:31:25.331Z,2.40
2023-09-25T14:33:54.776Z,2.50
2023-09-25T14:36:24.257Z,2.67
2023-09-25T14:38:52.616Z,2.17
2023-09-25T14:41:22.051Z,2.17
2023-09-25T14:43:50.569Z,2.40
2023-09-25T14:46:19.115Z,2.73
2023-09-25T14:48:49.164Z,2.33
2023-09-25T14:51:17.698Z,2.47
2023-09-25T14:53:47.436Z,2.40
2023-09-25T14:56:15.809Z,2.00
2023-09-25T14:58:44.361Z,2.00
2023-09-25T15:01:13.376Z,2.10
2023-09-25T15:03:41.827Z,3.43
2023-09-25T15:06:13.065Z,2.03
2023-09-25T15:08:41.997Z,2.00
2023-09-25T15:11:10.566Z,2.00
2023-09-25T15:13:39.332Z,1.93
2023-09-25T15:16:08.773Z,2.20
2023-09-25T15:18:37.270Z,1.87
2023-09-25T15:21:08.425Z,2.10
2023-09-25T15:23:38.478Z,1.97
2023-09-25T15:26:07.067Z,1.90
2023-09-25T15:28:35.513Z,2.00
2023-09-25T15:31:03.891Z,1.90
2023-09-25T15:33:32.476Z,2.20
2023-09-25T15:36:00.900Z,2.40
2023-09-25T15:38:29.212Z,1.80
2023-09-25T15:40:59.038Z,2.20
2023-09-25T15:43:27.326Z,2.00
2023-09-25T15:45:55.737Z,2.20
2023-09-25T15:48:24.225Z,2.00
2023-09-25T15:50:52.976Z,1.90
2023-09-25T15:53:21.194Z,1.60
2023-09-25T15:55:50.438Z,2.10
2023-09-25T15:58:20.070Z,1.77
2023-09-25T16:00:48.336Z,1.70
2023-09-25T16:03:17.196Z,2.23
2023-09-25T16:05:47.340Z,1.73
2023-09-25T16:08:16.206Z,1.70
2023-09-25T16:10:44.688Z,1.90
2023-09-25T16:13:13.314Z,2.00
2023-09-25T16:15:43.107Z,2.10
2023-09-25T16:18:11.983Z,1.80
2023-09-25T16:20:40.588Z,2.10
2023-09-25T16:23:09.111Z,2.20
2023-09-25T16:25:39.019Z,1.80
2023-09-25T16:28:07.726Z,1.80
2023-09-25T16:30:40.523Z,2.10
2023-09-25T16:33:10.582Z,1.90
2023-09-25T16:35:45.118Z,1.70
2023-09-25T16:38:38.749Z,1.77
2023-09-25T16:41:07.680Z,1.90
2023-09-25T16:43:37.590Z,1.80
2023-09-25T16:46:06.739Z,1.77
2023-09-25T16:48:38.169Z,1.80
2023-09-25T16:51:07.129Z,2.00
2023-09-25T16:53:35.772Z,2.00
2023-09-25T16:56:04.576Z,1.70
2023-09-25T16:58:35.267Z,1.83
2023-09-25T17:01:04.673Z,2.00
2023-09-25T17:03:33.370Z,2.77
2023-09-25T17:06:03.448Z,2.40
2023-09-25T17:08:32.368Z,2.10
2023-09-25T17:11:00.883Z,2.00
2023-09-25T17:13:49.106Z,2.00
2023-09-25T17:16:17.763Z,1.90
2023-09-25T17:18:46.226Z,2.20
2023-09-25T17:21:16.050Z,2.20
2023-09-25T17:23:44.505Z,4.13
2023-09-25T17:26:12.857Z,2.20
2023-09-25T17:28:41.215Z,2.43
2023-09-25T17:31:10.977Z,2.27
2023-09-25T17:33:39.673Z,1.67
2023-09-25T17:36:08.224Z,2.30
2023-09-25T17:38:38.088Z,2.80
2023-09-25T17:41:11.088Z,2.20
2023-09-25T17:43:39.850Z,2.10
2023-09-25T17:46:10.335Z,2.23
2023-09-25T17:48:43.952Z,2.07
2023-09-25T17:51:12.388Z,2.30
2023-09-25T17:53:42.290Z,2.17
2023-09-25T17:56:10.756Z,2.40
2023-09-25T17:58:39.364Z,2.40
2023-09-25T18:01:07.964Z,2.40
2023-09-25T18:03:36.651Z,2.20
2023-09-25T18:06:05.115Z,2.20
2023-09-25T18:08:33.863Z,2.43
2023-09-25T18:11:03.557Z,2.30
2023-09-25T18:13:31.892Z,2.50
2023-09-25T18:16:00.446Z,2.47
2023-09-25T18:18:29.929Z,2.40
2023-09-25T18:20:59.138Z,2.37
2023-09-25T18:23:30.765Z,2.37
2023-09-25T18:26:02.030Z,2.83
2023-09-25T18:28:32.064Z,2.93
2023-09-25T18:31:02.397Z,2.40
2023-09-25T18:33:32.183Z,2.50
2023-09-25T18:36:01.153Z,2.40
2023-09-25T18:38:29.577Z,2.80
2023-09-25T18:40:58.047Z,3.30
2023-09-25T18:43:26.493Z,2.83
2023-09-25T18:45:56.226Z,2.60
2023-09-25T18:48:24.895Z,2.60
2023-09-25T18:50:53.191Z,2.90
2023-09-25T18:53:23.253Z,2.90
2023-09-25T18:55:51.790Z,2.53
2023-09-25T18:58:20.053Z,2.85
2023-09-25T19:00:50.100Z,2.67
2023-09-25T19:03:20.206Z,2.83
2023-09-25T19:05:51.597Z,2.73
2023-09-25T19:08:21.468Z,2.80
2023-09-25T19:10:50.124Z,4.53
2023-09-25T19:13:40.231Z,2.80
2023-09-25T19:16:10.910Z,2.87
2023-09-25T19:18:42.213Z,2.90
2023-09-25T19:21:11.885Z,3.00
2023-09-25T19:23:40.560Z,2.80
2023-09-25T19:26:08.933Z,2.40
2023-09-25T19:28:37.381Z,2.47
2023-09-25T19:31:16.000Z,2.57
2023-09-25T19:33:57.313Z,2.40
2023-09-25T19:36:27.446Z,2.80
2023-09-25T19:38:55.880Z,3.67
2023-09-25T19:41:24.139Z,3.93
2023-09-25T19:43:53.301Z,3.20
2023-09-25T19:46:22.325Z,2.97
2023-09-25T19:48:52.468Z,3.20
2023-09-25T19:51:20.830Z,3.27
2023-09-25T19:53:49.630Z,2.93
2023-09-25T19:56:18.304Z,3.20
2023-09-25T19:58:46.642Z,3.17
2023-09-25T20:01:16.895Z,3.30
2023-09-25T20:03:45.626Z,3.70
2023-09-25T20:06:17.887Z,3.90
2023-09-25T20:08:46.345Z,3.53
2023-09-25T20:11:14.782Z,3.23
2023-09-25T20:13:43.167Z,3.33
2023-09-25T20:16:11.765Z,4.13
2023-09-25T20:18:40.660Z,4.13
2023-09-25T20:21:09.465Z,3.57
2023-09-25T20:23:39.548Z,3.50
2023-09-25T20:26:09.699Z,3.40
2023-09-25T20:28:38.253Z,3.20
2023-09-25T20:31:06.622Z,3.47
2023-09-25T20:33:35.062Z,3.57
2023-09-25T20:36:04.860Z,3.47
2023-09-25T20:38:33.319Z,3.57
2023-09-25T20:41:03.688Z,3.77
2023-09-25T20:43:33.314Z,3.90
2023-09-25T20:46:02.297Z,3.60
2023-09-25T20:48:31.512Z,3.80
2023-09-25T20:51:02.709Z,3.50
2023-09-25T20:53:31.346Z,4.07
2023-09-25T20:55:59.651Z,4.27
2023-09-25T20:58:29.372Z,4.47
2023-09-25T21:00:57.750Z,3.90
2023-09-25T21:03:26.297Z,4.10
2023-09-25T21:05:54.771Z,3.90
2023-09-25T21:08:24.177Z,3.87
2023-09-25T21:10:53.305Z,3.40
2023-09-25T21:13:21.729Z,3.80
2023-09-25T21:15:51.538Z,4.10
2023-09-25T21:18:20.114Z,4.90
2023-09-25T21:20:49.941Z,3.80
2023-09-25T21:23:18.301Z,4.00
2023-09-25T21:25:46.736Z,4.03
2023-09-25T21:28:15.177Z,3.90
2023-09-25T21:30:43.720Z,4.23
2023-09-25T21:33:13.594Z,4.23
2023-09-25T21:35:41.909Z,4.57
2023-09-25T21:38:10.379Z,4.80
2023-09-25T21:40:39.991Z,5.13
2023-09-25T21:43:08.358Z,4.77
2023-09-25T21:45:36.688Z,4.70
2023-09-25T21:48:08.356Z,4.40
2023-09-25T21:50:38.226Z,4.60
2023-09-25T21:53:06.811Z,4.30
2023-09-25T21:55:35.195Z,4.73
2023-09-25T21:58:03.502Z,5.03
2023-09-25T22:00:33.294Z,4.90
2023-09-25T22:03:01.954Z,4.80
2023-09-25T22:05:30.695Z,4.73
2023-09-25T22:08:00.480Z,4.80
2023-09-25T22:10:29.710Z,5.00
2023-09-25T22:12:58.205Z,5.27
2023-09-25T22:15:28.558Z,5.00
2023-09-25T22:17:58.136Z,5.10
2023-09-25T22:20:27.981Z,5.67
2023-09-25T22:22:56.459Z,4.90
2023-09-25T22:25:26.378Z,4.93
2023-09-25T22:27:56.972Z,5.17
2023-09-25T22:30:25.569Z,4.83
2023-09-25T22:32:53.970Z,4.80
2023-09-25T22:35:22.762Z,4.97
2023-09-25T22:38:07.670Z,4.47
2023-09-25T22:40:39.670Z,4.33
2023-09-25T22:43:09.547Z,4.70
2023-09-25T22:45:38.530Z,4.80
2023-09-25T22:48:07.462Z,4.60
2023-09-25T22:50:35.952Z,4.67
2023-09-25T22:53:04.341Z,5.10
2023-09-25T22:55:33.595Z,4.67
2023-09-25T22:58:05.939Z,4.70
2023-09-25T23:00:34.430Z,5.03
2023-09-25T23:03:02.979Z,4.60
2023-09-25T23:05:31.503Z,4.90
2023-09-25T23:07:59.764Z,5.03
2023-09-25T23:10:28.340Z,4.47
2023-09-25T23:12:56.878Z,4.90
2023-09-25T23:15:26.710Z,4.63
2023-09-25T23:17:55.348Z,4.73
2023-09-25T23:20:25.735Z,4.63
2023-09-25T23:22:56.541Z,4.67
2023-09-25T23:25:26.522Z,4.90
2023-09-25T23:27:55.699Z,4.80
2023-09-25T23:30:24.960Z,4.83
2023-09-25T23:32:55.731Z,4.50
2023-09-25T23:35:24.146Z,4.57
2023-09-25T23:37:52.572Z,4.90
2023-09-25T23:40:22.180Z,5.77
2023-09-25T23:42:51.204Z,6.37
2023-09-25T23:45:18.805Z,5.80
2023-09-25T23:47:48.963Z,5.80
2023-09-25T23:50:19.413Z,5.83
2023-09-25T23:52:49.145Z,6.60
2023-09-25T23:55:17.952Z,6.47
2023-09-25T23:57:47.657Z,7.40
